Latest Weather Observations for Murrurundi Gap

IDN60801

Issued at 10:02 am EST Thursday 30 July 2015 (issued every 30 minutes, with the page automatically refreshed every 10 minutes)

About weather observations | Map of weather stations | Latest weather observations for NSW | Other Formats
Station Details ID: 061392 Name: MURRURUNDI GAP AWS Lat: -31.74 Lon: 150.79 Height: 729.4 m
Data from the previous 72 hours. | See also: Recent months for locations in New South Wales
Date/Time
EST
Temp
°C
App
Temp
°C
Dew
Point
Rel
Hum
%
Delta-T
°C
Wind Press
QNH
hPa
Press
MSL
hPa
Rain
since 9 am
mm
Dir
 
Spd
km/h
Gust
km/h
Spd
kts
Gust
kts
30/10:00am 10.9 3.2 5.2 68 2.7 NNW 35 43 19 23 1027.5 1027.8 0.0
30/09:30am 10.2 2.7 4.4 67 2.7 NNW 33 43 18 23 1027.6 1027.9 0.0
30/09:00am 9.2 1.8 4.2 71 2.3 NW 32 37 17 20 1027.6 1027.9 0.0
30/08:30am 8.9 2.7 4.5 74 2.0 NNW 26 32 14 17 1027.7 1028.0 0.0
30/08:00am 7.5 0.1 3.9 78 1.6 NNW 32 35 17 19 1027.5 1027.8 0.0
30/07:30am 7.5 0.0 3.7 77 1.7 NNW 32 37 17 20 1027.2 1027.6 0.0
30/07:00am 6.6 0.4 4.1 84 1.1 NNW 26 33 14 18 1027.0 1027.4 0.0
30/06:30am 6.2 -0.4 4.4 88 0.8 NW 28 32 15 17 1026.8 1027.2 0.0
30/06:00am 6.6 0.5 4.6 87 0.9 NW 26 28 14 15 1026.7 1027.0 0.0
30/05:30am 6.2 0.8 4.5 89 0.8 NW 22 28 12 15 1026.9 1027.3 0.0
30/05:00am 7.0 0.9 4.7 85 1.0 NNW 26 32 14 17 1026.6 1026.9 0.0
30/04:30am 7.5 1.4 5.0 84 1.2 NNW 26 32 14 17 1026.5 1026.8 0.0
30/04:00am 7.2 1.8 4.7 84 1.1 NNW 22 28 12 15 1026.8 1027.2 0.0
30/03:30am 7.7 2.0 4.8 82 1.3 NNW 24 30 13 16 1027.0 1027.4 0.0
30/03:00am 8.1 2.4 4.9 80 1.5 NNW 24 30 13 16 1027.3 1027.7 0.0
30/02:30am 7.9 3.5 4.5 79 1.6 NNW 17 20 9 11 1027.8 1028.1 0.0
30/02:00am 8.1 4.0 4.5 78 1.6 NNW 15 22 8 12 1028.1 1028.5 0.0
30/01:30am 8.1 4.0 4.5 78 1.7 NW 15 19 8 10 1028.4 1028.8 0.0
30/01:00am 8.1 4.8 4.5 78 1.6 NW 11 13 6 7 1028.6 1029.0 0.0
30/12:30am 8.8 7.2 4.6 75 1.9 NW 2 9 1 5 1028.7 1029.1 0.0
30/12:00am 8.1 5.3 5.2 82 1.3 SE 9 11 5 6 1029.2 1029.6 0.0
 
Date/Time
EST
Temp
°C
App
Temp
°C
Dew
Point
Rel
Hum
%
Delta-T
°C
Wind Press
QNH
hPa
Press
MSL
hPa
Rain
since 9 am
mm
Dir
 
Spd
km/h
Gust
km/h
Spd
kts
Gust
kts
29/11:30pm 7.7 4.9 5.0 83 1.2 ESE 9 11 5 6 1029.8 1030.2 0.0
29/11:00pm 7.8 5.0 5.1 83 1.2 ESE 9 11 5 6 1030.0 1030.4 0.0
29/10:30pm 7.7 4.5 5.3 85 1.1 ESE 11 13 6 7 1030.0 1030.4 0.0
29/10:00pm 7.3 3.3 5.1 86 1.0 SE 15 15 8 8 1030.0 1030.4 0.0
29/09:30pm 7.3 3.7 5.1 86 1.0 SE 13 17 7 9 1030.0 1030.4 0.0
29/09:00pm 7.4 4.2 4.9 84 1.1 SE 11 15 6 8 1029.8 1030.2 0.0
29/08:30pm 7.7 4.1 4.8 82 1.3 SE 13 13 7 7 1030.3 1030.8 0.0
29/08:00pm 8.4 4.8 5.0 79 1.6 SE 13 13 7 7 1030.5 1030.9 0.0
29/07:30pm 8.6 5.3 4.8 77 1.7 SE 11 13 6 7 1030.5 1030.9 0.0
29/07:00pm 9.1 6.3 5.1 76 1.9 ESE 9 11 5 6 1030.3 1030.8 0.0
29/06:30pm 8.9 5.7 5.1 77 1.8 ESE 11 13 6 7 1030.0 1030.4 0.0
29/06:00pm 9.5 6.7 5.3 75 2.0 SE 9 11 5 6 1029.6 1030.0 0.0
29/05:30pm 9.9 6.7 5.1 72 2.3 SSE 11 13 6 7 1029.1 1029.4 0.0
29/05:00pm 10.4 6.8 4.8 68 2.6 SSE 13 15 7 8 1028.8 1029.2 0.0
29/04:30pm 12.8 9.7 3.7 54 4.3 NW 9 13 5 7 1029.0 1029.3 0.0
29/04:00pm 13.1 10.0 3.5 52 4.5 NW 9 13 5 7 1029.3 1029.7 0.0
29/03:30pm 13.2 9.7 3.6 52 4.5 NW 11 15 6 8 1029.4 1029.8 0.0
29/03:00pm 13.3 11.8 5.0 57 4.0 E 2 7 1 4 1029.6 1030.0 0.0
29/02:30pm 12.5 9.6 4.7 59 3.7 ESE 9 13 5 7 1029.7 1030.1 0.0
29/02:00pm 12.6 10.2 5.3 61 3.5 ESE 7 17 4 9 1030.0 1030.4 0.0
29/01:30pm 12.3 9.0 4.8 60 3.6 SE 11 15 6 8 1030.2 1030.6 0.0
29/01:00pm 11.6 8.3 4.3 61 3.4 ESE 11 19 6 10 1030.9 1031.3 0.0
29/12:30pm 11.1 7.6 3.6 60 3.5 SE 11 17 6 9 1031.6 1032.1 0.0
29/12:00pm 10.9 7.1 4.1 63 3.1 SE 13 19 7 10 1032.1 1032.5 0.0
29/11:30am 10.5 6.0 4.4 66 2.8 SE 17 20 9 11 1032.5 1032.9 0.0
29/11:00am 9.7 5.0 3.2 64 2.9 SE 17 22 9 12 1033.1 1033.6 0.0
29/10:30am 9.2 4.4 2.5 63 3.0 ESE 17 20 9 11 1033.6 1034.0 0.0
29/10:00am 8.9 3.9 3.5 69 2.4 SE 19 20 10 11 1033.7 1034.1 0.0
29/09:30am 7.5 2.6 2.0 68 2.4 SE 17 20 9 11 1033.6 1034.0 0.0
29/09:00am 6.6 1.7 2.1 73 1.9 SE 17 22 9 12 1033.6 1034.0 0.0
29/08:30am 6.7 1.8 2.2 73 1.9 SE 17 20 9 11 1033.4 1033.8 0.0
29/08:00am 5.5 0.5 1.1 73 1.8 SE 17 19 9 10 1033.4 1033.8 0.0
29/07:30am 4.2 -0.5 0.7 78 1.4 SE 15 17 8 9 1032.9 1033.4 0.0
29/07:00am 3.4 -1.7 0.6 82 1.1 SE 17 20 9 11 1032.8 1033.3 0.0
29/06:30am 3.3 -2.3 0.9 84 1.0 SE 20 22 11 12 1032.5 1032.9 0.0
29/06:00am 3.2 -2.3 0.8 84 0.9 SE 19 20 10 11 1032.0 1032.4 0.0
29/05:30am 2.9 -2.8 0.3 83 1.0 SE 20 24 11 13 1031.8 1032.3 0.0
29/05:00am 3.3 -2.5 0.2 80 1.2 SE 20 24 11 13 1031.5 1032.0 0.0
29/04:30am 2.8 -2.5 -0.5 79 1.3 SE 17 20 9 11 1031.3 1031.7 0.0
29/04:00am 3.4 -2.4 -0.2 77 1.4 SE 20 28 11 15 1031.4 1031.8 0.0
29/03:30am 3.3 -2.4 0.4 81 1.1 SE 20 24 11 13 1031.5 1032.0 0.0
29/03:00am 2.7 -2.8 0.3 84 0.9 SE 19 22 10 12 1031.8 1032.3 0.0
29/02:30am 2.3 -3.5 -0.1 84 0.9 SE 20 26 11 14 1031.7 1032.2 0.0
29/02:00am 3.2 -3.0 -0.1 79 1.3 SE 22 24 12 13 1031.6 1032.1 0.0
29/01:30am 2.8 -3.1 -0.5 79 1.3 SE 20 24 11 13 1031.6 1032.1 0.0
29/01:00am 3.5 -2.2 -0.9 73 1.7 SE 19 22 10 12 1031.6 1032.1 0.0
29/12:30am 3.8 -1.6 -1.0 71 1.8 SE 17 19 9 10 1031.7 1032.2 0.0
29/12:00am 3.3 -1.7 -1.3 72 1.7 SE 15 19 8 10 1031.8 1032.3 0.0
 
Date/Time
EST
Temp
°C
App
Temp
°C
Dew
Point
Rel
Hum
%
Delta-T
°C
Wind Press
QNH
hPa
Press
MSL
hPa
Rain
since 9 am
mm
Dir
 
Spd
km/h
Gust
km/h
Spd
kts
Gust
kts
28/11:30pm 3.7 -1.3 -1.4 69 1.9 SE 15 19 8 10 1031.8 1032.3 0.0
28/11:00pm 4.0 -0.3 -1.8 66 2.2 SE 11 15 6 8 1032.0 1032.4 0.0
28/10:30pm 4.2 0.2 -2.0 64 2.3 ESE 9 11 5 6 1032.2 1032.6 0.0
28/10:00pm 4.5 0.5 -2.1 62 2.5 SE 9 13 5 7 1032.2 1032.6 0.0
28/09:30pm 5.0 1.0 -2.1 60 2.7 SE 9 11 5 6 1032.3 1032.7 0.0
28/09:00pm 4.9 0.9 -2.0 61 2.6 ESE 9 11 5 6 1032.3 1032.7 0.0
28/08:30pm 5.0 0.6 -2.6 58 2.8 SE 11 13 6 7 1032.1 1032.5 0.0
28/08:00pm 5.5 1.5 -2.3 57 2.9 ESE 9 9 5 5 1031.8 1032.3 0.0
28/07:30pm 5.5 1.4 -3.1 54 3.2 SE 9 9 5 5 1031.7 1032.2 0.0
28/07:00pm 6.3 2.6 -2.6 53 3.3 SSE 7 9 4 5 1031.7 1032.2 0.0
28/06:30pm 6.5 3.0 -2.6 52 3.5 SE 6 7 3 4 1031.4 1031.8 0.0
28/06:00pm 6.6 3.1 -2.5 52 3.4 ESE 6 9 3 5 1031.2 1031.6 0.0
28/05:30pm 6.7 3.0 -3.0 50 3.7 SSE 7 9 4 5 1030.9 1031.3 0.0
28/05:00pm 7.8 2.5 -3.4 45 4.2 S 15 20 8 11 1030.6 1031.0 0.0
28/04:30pm 8.5 3.6 -3.7 42 4.6 S 13 19 7 10 1030.5 1030.9 0.0
28/04:00pm 8.8 3.9 -3.1 43 4.6 S 13 17 7 9 1030.3 1030.8 0.0
28/03:30pm 9.3 4.7 -1.1 48 4.2 SE 13 17 7 9 1030.1 1030.5 0.0
28/03:00pm 9.4 4.5 -3.2 41 4.8 SSE 13 20 7 11 1030.1 1030.5 0.0
28/02:30pm 9.2 4.2 -1.5 47 4.3 ESE 15 20 8 11 1030.2 1030.6 0.0
28/02:00pm 9.2 3.8 -1.5 47 4.3 ESE 17 24 9 13 1030.5 1030.9 0.0
28/01:30pm 9.5 4.6 -0.7 49 4.2 E 15 20 8 11 1030.8 1031.2 0.0
28/01:00pm 8.8 3.4 -1.3 49 4.0 ESE 17 20 9 11 1031.0 1031.4 0.0
28/12:30pm 8.9 4.1 -0.1 53 3.7 SE 15 20 8 11 1031.4 1031.8 0.0
28/12:00pm 8.5 4.0 0.0 55 3.5 ESE 13 17 7 9 1031.8 1032.3 0.0
28/11:30am 7.6 3.4 1.5 65 2.6 SE 13 17 7 9 1032.3 1032.7 0.0
28/11:00am 6.2 1.4 0.1 65 2.4 ESE 15 19 8 10 1032.6 1033.0 0.0
28/10:30am 5.9 1.6 1.2 72 2.0 SE 13 17 7 9 1032.7 1033.2 0.0
28/10:00am 5.2 0.8 0.6 72 1.9 SE 13 17 7 9 1032.7 1033.2 0.0
28/09:30am 4.0 -0.1 -0.2 74 1.7 ESE 11 15 6 8 1032.6 1033.0 0.0
28/09:00am 3.3 -1.2 -0.5 76 1.5 ESE 13 15 7 8 1032.5 1032.9 0.0
28/08:30am 2.8 -1.0 -0.5 79 1.3 SE 9 11 5 6 1032.2 1032.6 0.0
28/08:00am 2.2 -1.2 -0.5 82 1.0 SE 7 11 4 6 1032.0 1032.4 0.0
28/07:30am 0.9 -3.3 -0.9 88 0.7 SSE 11 11 6 6 1031.7 1032.2 0.0
28/07:00am 1.0 -3.2 -1.1 86 0.8 SSE 11 11 6 6 1031.4 1031.8 0.0
28/06:30am 0.9 -1.3 -1.3 85 0.8 CALM 0 0 0 0 1031.1 1031.5 0.0
28/06:00am 1.5 -0.7 -1.4 81 1.1 CALM 0 0 0 0 1030.7 1031.1 0.0
28/05:30am 1.4 -1.9 -1.3 82 1.0 WNW 6 7 3 4 1030.3 1030.8 0.0
28/05:00am 1.3 -2.2 -1.6 81 1.1 NW 7 9 4 5 1030.1 1030.5 0.0
28/04:30am 1.9 -1.4 -1.2 80 1.2 NW 6 7 3 4 1029.9 1030.3 0.0
28/04:00am 1.8 -1.5 -1.3 80 1.1 WNW 6 7 3 4 1029.8 1030.2 0.0
28/03:30am 1.8 -1.7 -1.3 80 1.2 NW 7 9 4 5 1029.7 1030.1 0.0
28/03:00am 1.8 -1.7 -1.3 80 1.1 NW 7 7 4 4 1029.8 1030.2 0.0
28/02:30am 1.7 -1.3 -1.7 78 1.3 SW 4 9 2 5 1029.7 1030.1 0.0
28/02:00am 2.6 -0.9 -1.2 76 1.4 SE 7 9 4 5 1029.7 1030.1 0.0
28/01:30am 2.5 -0.8 -1.1 77 1.4 NNE 6 7 3 4 1029.7 1030.1 0.0
28/01:00am 1.9 -1.6 -1.7 77 1.3 ENE 7 9 4 5 1029.9 1030.3 0.0
28/12:30am 2.7 -1.2 -1.5 74 1.6 SE 9 13 5 7 1029.9 1030.3 0.0
28/12:00am 3.5 -0.8 -1.6 69 1.9 S 11 19 6 10 1029.6 1030.0 0.0
 
Date/Time
EST
Temp
°C
App
Temp
°C
Dew
Point
Rel
Hum
%
Delta-T
°C
Wind Press
QNH
hPa
Press
MSL
hPa
Rain
since 9 am
mm
Dir
 
Spd
km/h
Gust
km/h
Spd
kts
Gust
kts
27/11:30pm 3.3 -1.0 -1.6 70 1.8 S 11 20 6 11 1029.5 1029.9 0.0
27/11:00pm 3.0 -0.5 -1.5 72 1.7 E 7 11 4 6 1029.5 1029.9 0.0
27/10:30pm 3.6 1.4 -1.2 71 1.8 CALM 0 7 0 4 1029.4 1029.8 0.0
27/10:00pm 3.4 1.2 -1.5 70 1.8 CALM 0 0 0 0 1029.4 1029.8 0.0
27/09:30pm 4.1 0.8 -1.5 67 2.1 SE 6 9 3 5 1029.4 1029.8 0.0
27/09:00pm 4.1 0.2 -1.5 67 2.1 SSW 9 13 5 7 1029.2 1029.6 0.0
27/08:30pm 4.2 0.3 -1.6 66 2.2 SSE 9 15 5 8 1029.0 1029.3 0.0
27/08:00pm 4.4 1.4 -1.8 64 2.3 SSE 4 9 2 5 1028.7 1029.1 0.0
27/07:30pm 5.0 1.4 -1.9 61 2.6 WSW 7 17 4 9 1028.4 1028.8 0.0
27/07:00pm 5.1 1.1 -2.0 60 2.7 WNW 9 13 5 7 1028.1 1028.5 0.0
27/06:30pm 5.3 1.7 -2.3 58 2.9 WSW 7 11 4 6 1027.8 1028.1 0.0
27/06:00pm 5.0 0.3 -1.7 62 2.5 WSW 13 15 7 8 1027.5 1027.8 0.0
27/05:30pm 5.7 2.2 -1.7 59 2.9 WSW 7 11 4 6 1027.0 1027.4 0.0
27/05:00pm 6.9 1.1 -1.5 55 3.3 WNW 19 24 10 13 1026.4 1026.7 0.0
27/04:30pm 7.7 1.7 -1.5 52 3.6 NW 20 30 11 16 1025.9 1026.3 0.0
27/04:00pm 8.0 0.8 -2.0 49 3.9 NW 26 35 14 19 1025.5 1025.8 0.0
27/03:30pm 8.1 0.6 -1.4 51 3.8 NW 28 39 15 21 1025.2 1025.5 0.0
27/03:00pm 8.4 1.2 -1.7 49 4.0 WNW 26 37 14 20 1025.5 1025.8 0.0
27/02:30pm 8.2 0.6 -2.4 47 4.1 NW 28 41 15 22 1025.4 1025.7 0.0
27/02:00pm 8.2 0.0 -0.8 53 3.6 NW 32 39 17 21 1025.4 1025.7 0.0
27/01:30pm 7.9 0.4 -1.3 52 3.7 WNW 28 39 15 21 1025.6 1026.0 0.0
27/01:00pm 7.9 -0.4 -1.9 50 3.8 NW 32 44 17 24 1025.7 1026.1 0.0
27/12:30pm 8.0 1.2 -2.0 49 3.9 NW 24 35 13 19 1026.3 1026.6 0.0
27/12:00pm 7.9 0.0 -1.9 50 3.8 NW 30 43 16 23 1026.4 1026.7 0.0
27/11:30am 7.3 1.4 -1.1 55 3.3 NW 20 30 11 16 1026.9 1027.3 0.0
27/11:00am 6.9 0.2 -0.8 58 3.1 NW 24 32 13 17 1027.1 1027.5 0.0
27/10:30am 6.0 0.1 -0.9 61 2.7 NW 20 30 11 16 1027.3 1027.7 0.0

Other Formats:

Comma delimited format used in spreadsheet applications
http://www.bom.gov.au/fwo/IDN60801/IDN60801.95747.axf

JavaScript Object Notation format (JSON) in row-major order
http://www.bom.gov.au/fwo/IDN60801/IDN60801.95747.json